Time;durP1;ratioP1;P1;durP2;ratioP2;P2;SDS_P1;SDS_P2;PMS_P1;PMS_P2;Temp;Humidity;BMP_temperature;BMP_pressure;BME280_temperature;BME280_humidity;BME280_pressure;Samples;Min_cycle;Max_cycle;Signal;HPM_P1;HPM_P2
2022/06/19 00:02:11;;;;;;;14.80;3.45;;;18.60;57.40;;;;;;2373760;56;21067;-74
2022/06/19 00:04:38;;;;;;;11.63;2.97;;;18.60;57.70;;;;;;2626030;52;21114;-75
2022/06/19 00:07:06;;;;;;;11.43;2.80;;;18.50;57.80;;;;;;2373701;56;21110;-75
2022/06/19 00:09:34;;;;;;;9.05;2.20;;;18.50;58.10;;;;;;2373109;56;21047;-75
2022/06/19 00:12:01;;;;;;;15.75;3.40;;;18.40;58.40;;;;;;2372664;56;21031;-75
2022/06/19 00:14:33;;;;;;;10.90;3.60;;;18.30;58.50;;;;;;2373402;56;21122;-75
2022/06/19 00:17:01;;;;;;;13.98;4.12;;;18.30;58.60;;;;;;2373245;56;21117;-75
2022/06/19 00:19:29;;;;;;;12.18;3.95;;;18.30;58.90;;;;;;2372428;56;21035;-75
2022/06/19 00:21:56;;;;;;;12.45;3.58;;;18.20;59.00;;;;;;2626578;52;21369;-75
2022/06/19 00:24:24;;;;;;;10.00;2.85;;;18.10;59.20;;;;;;2373402;56;21111;-74
2022/06/19 00:26:52;;;;;;;15.73;2.78;;;18.10;59.40;;;;;;2372510;56;21055;-77
2022/06/19 00:29:19;;;;;;;11.00;2.67;;;18.10;59.80;;;;;;2373634;56;21549;-77
2022/06/19 00:31:46;;;;;;;17.23;2.80;;;18.00;59.70;;;;;;2373001;56;21043;-77
2022/06/19 00:34:14;;;;;;;15.35;4.18;;;18.00;60.00;;;;;;2372817;56;21043;-77
2022/06/19 00:36:43;;;;;;;11.63;3.28;;;17.90;60.10;;;;;;2372000;56;21047;-77
2022/06/19 00:39:11;;;;;;;9.57;2.42;;;17.90;60.30;;;;;;2372907;56;21047;-74
2022/06/19 00:41:40;;;;;;;11.48;3.40;;;17.80;60.60;;;;;;2371998;56;21043;-74
2022/06/19 00:44:09;;;;;;;13.65;3.08;;;17.80;60.90;;;;;;2373508;56;21110;-74
2022/06/19 00:46:48;;;;;;;7.50;2.78;;;17.80;60.90;;;;;;2372736;56;21436;-74
2022/06/19 00:49:19;;;;;;;15.38;3.37;;;17.80;61.10;;;;;;2372853;56;21061;-74
2022/06/19 00:51:49;;;;;;;16.60;4.30;;;17.80;61.10;;;;;;2372145;56;21070;-75
2022/06/19 00:54:20;;;;;;;10.05;2.62;;;17.80;61.30;;;;;;2372377;56;21565;-75
2022/06/19 00:56:48;;;;;;;16.45;3.78;;;17.80;61.40;;;;;;2625811;52;21127;-75
2022/06/19 00:59:17;;;;;;;11.52;2.65;;;17.80;61.50;;;;;;2372288;56;21070;-75
2022/06/19 01:01:45;;;;;;;17.92;3.10;;;17.80;61.70;;;;;;2625664;52;21516;-75
2022/06/19 01:04:20;;;;;;;12.32;2.78;;;17.70;61.80;;;;;;2372429;56;21310;-75
2022/06/19 01:06:48;;;;;;;8.85;2.67;;;17.70;61.90;;;;;;2372800;56;21043;-75
2022/06/19 01:09:16;;;;;;;15.65;2.97;;;17.80;62.00;;;;;;2371545;56;21047;-75
2022/06/19 01:11:45;;;;;;;10.10;3.10;;;17.80;62.00;;;;;;2372077;56;21109;-75
2022/06/19 01:14:21;;;;;;;10.48;2.50;;;17.80;61.80;;;;;;2372295;56;21043;-75
2022/06/19 01:16:48;;;;;;;14.52;3.30;;;17.80;61.90;;;;;;2371022;56;21114;-75
2022/06/19 01:19:24;;;;;;;10.98;2.95;;;17.80;61.90;;;;;;2371640;56;21137;-75
2022/06/19 01:22:02;;;;;;;8.00;2.75;;;17.70;62.00;;;;;;2371772;56;21517;-74
2022/06/19 01:24:41;;;;;;;18.23;3.80;;;17.80;62.10;;;;;;2370445;56;21059;-75
2022/06/19 01:28:45;;;;;;;14.07;3.00;;;17.70;62.20;;;;;;2622634;52;21118;-75
2022/06/19 01:31:14;;;;;;;11.85;2.83;;;17.70;62.50;;;;;;2625590;52;21114;-75
2022/06/19 01:33:46;;;;;;;10.38;2.97;;;17.70;62.10;;;;;;2371466;56;21039;-75
2022/06/19 01:36:16;;;;;;;10.15;3.25;;;17.70;62.50;;;;;;2372495;56;21118;-74
2022/06/19 01:38:46;;;;;;;13.52;3.37;;;17.60;62.70;;;;;;2372195;56;21612;-74
2022/06/19 01:41:16;;;;;;;16.95;3.50;;;17.60;62.90;;;;;;2371885;56;21050;-75
2022/06/19 01:43:44;;;;;;;8.30;2.40;;;17.60;63.00;;;;;;2370960;56;21573;-75
2022/06/19 01:46:13;;;;;;;13.25;3.78;;;17.60;63.10;;;;;;2371461;56;21039;-74
2022/06/19 01:48:41;;;;;;;14.63;2.92;;;17.60;63.10;;;;;;2373030;56;21517;-75
2022/06/19 01:51:09;;;;;;;13.93;3.65;;;17.60;63.10;;;;;;2372054;56;21050;-75
2022/06/19 01:53:41;;;;;;;11.95;3.03;;;17.60;63.30;;;;;;2625272;52;21109;-75
2022/06/19 01:56:11;;;;;;;8.80;2.58;;;17.60;63.40;;;;;;2372210;56;21110;-75
2022/06/19 01:58:41;;;;;;;15.68;3.87;;;17.60;63.40;;;;;;2372011;56;21660;-75
2022/06/19 02:01:09;;;;;;;16.67;3.40;;;17.60;63.40;;;;;;2371961;56;21438;-74
2022/06/19 02:03:41;;;;;;;12.80;2.67;;;17.60;63.40;;;;;;2624930;52;21051;-75
2022/06/19 02:06:11;;;;;;;13.62;2.70;;;17.60;63.80;;;;;;2623834;52;21031;-75
2022/06/19 02:08:40;;;;;;;16.33;3.75;;;17.50;64.00;;;;;;2371518;56;21045;-75
2022/06/19 02:11:11;;;;;;;11.57;3.30;;;17.50;64.10;;;;;;2371493;56;21110;-75
2022/06/19 02:13:40;;;;;;;12.60;3.08;;;17.50;64.20;;;;;;2372013;56;21533;-75
2022/06/19 02:16:10;;;;;;;16.55;4.30;;;17.50;64.30;;;;;;2372429;56;21050;-75
2022/06/19 02:18:41;;;;;;;12.00;2.95;;;17.60;64.30;;;;;;2372800;56;21541;-75
2022/06/19 02:21:13;;;;;;;11.05;3.42;;;17.60;64.20;;;;;;2372084;56;21054;-75
2022/06/19 02:23:40;;;;;;;13.05;3.30;;;17.60;64.30;;;;;;2371703;56;21062;-75
2022/06/19 02:26:11;;;;;;;11.48;2.92;;;17.60;64.20;;;;;;2372574;56;21062;-75
2022/06/19 02:28:40;;;;;;;9.82;2.87;;;17.60;64.30;;;;;;2372375;56;21549;-75
2022/06/19 02:31:08;;;;;;;11.73;4.28;;;17.60;64.20;;;;;;2372553;56;21046;-75
2022/06/19 02:33:39;;;;;;;19.52;3.62;;;17.60;64.30;;;;;;2373096;56;22223;-75
2022/06/19 02:36:36;;;;;;;14.63;3.75;;;17.50;64.50;;;;;;2371738;56;22185;-75
2022/06/19 02:39:33;;;;;;;12.07;3.42;;;17.50;64.80;;;;;;2372605;56;21545;-75
2022/06/19 02:42:23;;;;;;;18.25;4.12;;;17.50;64.90;;;;;;2370948;56;21542;-75
2022/06/19 02:44:52;;;;;;;15.95;3.83;;;17.40;64.60;;;;;;2372926;56;21307;-75
2022/06/19 02:47:22;;;;;;;8.60;2.75;;;17.40;64.80;;;;;;2372327;56;21035;-75
2022/06/19 02:52:25;;;;;;;15.52;4.00;;;17.40;65.10;;;;;;2334523;57;28334;-75
2022/06/19 02:54:52;;;;;;;10.82;3.25;;;17.00;67.30;;;;;;2593468;53;21125;-75
2022/06/19 02:57:20;;;;;;;16.35;3.00;;;17.20;66.50;;;;;;2345625;57;21331;-75
2022/06/19 02:59:47;;;;;;;12.57;3.40;;;17.30;66.00;;;;;;2364362;56;21034;-75
2022/06/19 03:02:16;;;;;;;21.48;3.58;;;17.30;65.70;;;;;;2371601;56;21055;-75
2022/06/19 03:04:47;;;;;;;14.45;3.28;;;17.30;65.00;;;;;;2373230;56;21376;-75
2022/06/19 03:07:14;;;;;;;16.10;3.72;;;17.30;65.50;;;;;;2372511;56;21149;-75
2022/06/19 03:09:42;;;;;;;14.13;3.65;;;17.30;65.40;;;;;;2374086;56;21545;-74
2022/06/19 03:12:11;;;;;;;15.18;3.40;;;17.30;65.60;;;;;;2372490;56;21114;-75
2022/06/19 03:14:39;;;;;;;15.15;3.75;;;17.20;65.80;;;;;;2373068;56;21558;-75
2022/06/19 03:17:06;;;;;;;15.02;4.07;;;17.20;66.50;;;;;;2373976;56;21522;-75
2022/06/19 03:19:35;;;;;;;20.60;3.65;;;17.20;66.40;;;;;;2372309;56;21063;-75
2022/06/19 03:22:03;;;;;;;14.50;3.42;;;17.10;66.60;;;;;;2372577;56;21102;-75
2022/06/19 03:24:30;;;;;;;18.00;4.40;;;17.10;66.90;;;;;;2373385;56;21129;-75
2022/06/19 03:26:58;;;;;;;29.52;4.60;;;17.00;67.10;;;;;;2372905;56;21035;-75
2022/06/19 03:29:25;;;;;;;20.40;3.17;;;17.00;67.40;;;;;;2373458;56;21035;-75
2022/06/19 03:31:53;;;;;;;18.48;4.60;;;17.00;67.80;;;;;;2373182;56;21695;-75
2022/06/19 03:34:20;;;;;;;16.37;4.05;;;16.90;68.10;;;;;;2372171;56;21122;-75
2022/06/19 03:36:47;;;;;;;18.87;4.43;;;16.90;69.10;;;;;;2373006;56;21105;-74
2022/06/19 03:39:15;;;;;;;17.98;4.18;;;16.90;68.70;;;;;;2627355;52;21071;-75
2022/06/19 03:41:43;;;;;;;19.92;4.18;;;16.80;69.10;;;;;;2373312;56;21239;-75
2022/06/19 03:44:10;;;;;;;18.02;4.30;;;16.80;69.60;;;;;;2373055;56;21019;-74
2022/06/19 03:46:38;;;;;;;26.55;4.85;;;16.70;70.00;;;;;;2626326;52;21042;-74
2022/06/19 03:49:05;;;;;;;17.65;3.70;;;16.60;70.40;;;;;;2373084;56;21063;-75
2022/06/19 03:51:33;;;;;;;23.52;3.72;;;16.60;70.80;;;;;;2372988;56;21537;-75
2022/06/19 03:54:00;;;;;;;20.10;5.00;;;16.50;71.00;;;;;;2330555;55;21105;-75
2022/06/19 03:56:30;;;;;;;22.08;4.32;;;16.50;71.10;;;;;;2303469;58;21073;-76
2022/06/19 03:58:58;;;;;;;17.90;3.65;;;16.50;71.40;;;;;;2302868;58;21047;-75
2022/06/19 04:01:28;;;;;;;24.00;5.30;;;16.50;71.60;;;;;;2301877;58;21533;-76
2022/06/19 04:03:57;;;;;;;21.12;3.78;;;16.50;71.90;;;;;;2539062;54;22140;-76
2022/06/19 04:06:27;;;;;;;21.23;4.75;;;16.50;72.10;;;;;;2301554;58;21131;-77
2022/06/19 04:08:55;;;;;;;24.67;4.15;;;16.50;72.10;;;;;;2301838;58;21568;-76
2022/06/19 04:11:24;;;;;;;16.12;3.72;;;16.60;72.10;;;;;;2302095;58;21647;-76
2022/06/19 04:13:53;;;;;;;15.35;4.05;;;16.60;72.00;;;;;;2301751;58;21892;-76
2022/06/19 04:16:23;;;;;;;14.90;3.12;;;16.70;72.10;;;;;;2301465;58;21141;-76
2022/06/19 04:18:52;;;;;;;20.35;4.00;;;16.80;71.80;;;;;;2301296;58;21110;-76
2022/06/19 04:21:22;;;;;;;20.02;4.55;;;16.80;71.60;;;;;;2301510;58;21573;-76
2022/06/19 04:23:54;;;;;;;21.52;4.87;;;16.90;71.60;;;;;;2301425;58;21058;-76
2022/06/19 04:26:23;;;;;;;18.40;4.10;;;16.90;71.50;;;;;;2301219;58;21552;-77
2022/06/19 04:28:50;;;;;;;22.58;4.25;;;16.90;71.50;;;;;;2301880;58;21071;-76
2022/06/19 04:31:18;;;;;;;17.17;4.68;;;16.80;71.30;;;;;;2300969;58;21054;-76
2022/06/19 04:33:45;;;;;;;19.23;4.18;;;16.90;71.40;;;;;;2301664;58;21078;-76
2022/06/19 04:36:16;;;;;;;21.10;4.85;;;16.80;71.50;;;;;;2301413;58;21562;-76
2022/06/19 04:38:46;;;;;;;10.75;3.25;;;16.90;71.70;;;;;;2301521;58;21066;-76
2022/06/19 04:41:15;;;;;;;17.80;4.18;;;16.90;71.50;;;;;;2301473;58;21082;-76
2022/06/19 04:43:43;;;;;;;18.80;4.12;;;16.90;71.50;;;;;;2301586;58;21126;-76
2022/06/19 04:46:11;;;;;;;15.95;3.85;;;17.00;71.40;;;;;;2301269;58;21624;-76
2022/06/19 04:48:39;;;;;;;26.12;4.35;;;17.00;71.40;;;;;;2301479;58;21058;-77
2022/06/19 04:51:07;;;;;;;15.85;4.10;;;17.00;71.40;;;;;;2301663;58;21354;-76
2022/06/19 04:53:37;;;;;;;19.90;5.18;;;17.10;71.50;;;;;;2301459;58;21054;-76
2022/06/19 04:56:05;;;;;;;19.58;3.70;;;17.10;71.50;;;;;;2301575;58;21113;-76
2022/06/19 04:58:33;;;;;;;13.85;3.40;;;17.10;71.60;;;;;;2301685;58;21125;-75
2022/06/19 05:01:03;;;;;;;10.85;3.33;;;17.20;71.30;;;;;;2301680;58;21547;-75
2022/06/19 05:03:31;;;;;;;15.10;3.90;;;17.30;71.30;;;;;;2301742;58;21114;-76
2022/06/19 05:05:58;;;;;;;17.90;3.78;;;17.40;70.80;;;;;;2301380;58;21229;-75
2022/06/19 05:08:26;;;;;;;18.77;3.85;;;17.50;70.60;;;;;;2301733;58;21066;-77
2022/06/19 05:10:53;;;;;;;16.45;4.22;;;17.60;70.60;;;;;;2301643;58;21118;-76
2022/06/19 05:13:22;;;;;;;16.20;3.12;;;17.60;70.40;;;;;;2301778;58;21074;-76
2022/06/19 05:16:00;;;;;;;14.00;3.25;;;17.70;69.70;;;;;;2301960;58;22145;-76
2022/06/19 05:18:28;;;;;;;16.55;3.90;;;17.80;69.80;;;;;;2301672;58;21169;-76
2022/06/19 05:20:57;;;;;;;16.58;4.10;;;17.90;69.80;;;;;;2301384;58;21684;-76
2022/06/19 05:23:25;;;;;;;12.18;2.80;;;17.90;69.00;;;;;;2301457;58;21134;-76
2022/06/19 05:25:59;;;;;;;15.57;4.00;;;18.00;68.20;;;;;;2301280;58;21125;-76
2022/06/19 05:28:27;;;;;;;15.23;3.15;;;18.00;67.80;;;;;;2301358;58;22369;-76
2022/06/19 05:30:54;;;;;;;15.07;3.37;;;18.00;67.40;;;;;;2301381;58;21058;-76
2022/06/19 05:33:22;;;;;;;13.35;3.70;;;18.00;67.10;;;;;;2301115;58;21070;-76
2022/06/19 05:35:49;;;;;;;18.37;4.20;;;17.90;67.10;;;;;;2301298;58;21684;-76
2022/06/19 05:38:17;;;;;;;15.88;3.92;;;17.90;67.30;;;;;;2301112;58;21066;-76
2022/06/19 05:40:44;;;;;;;12.88;3.47;;;17.80;67.30;;;;;;2301455;58;21109;-76
2022/06/19 05:43:11;;;;;;;19.75;3.45;;;17.80;67.40;;;;;;2301195;58;21062;-75
2022/06/19 05:45:39;;;;;;;11.73;4.07;;;17.70;67.60;;;;;;2301828;58;21093;-76
2022/06/19 05:48:07;;;;;;;15.95;4.12;;;17.70;68.40;;;;;;2301046;58;21074;-76
2022/06/19 05:50:35;;;;;;;10.77;2.78;;;17.60;67.40;;;;;;2301836;58;21121;-76
2022/06/19 05:53:02;;;;;;;16.65;4.12;;;17.60;67.40;;;;;;2301514;58;21038;-76
2022/06/19 05:55:30;;;;;;;19.55;3.83;;;17.60;67.60;;;;;;2301360;58;21061;-76
2022/06/19 05:57:57;;;;;;;10.90;3.25;;;17.60;68.00;;;;;;2301158;58;21552;-76
2022/06/19 06:00:25;;;;;;;9.90;2.85;;;17.60;68.00;;;;;;2301415;58;21062;-77
2022/06/19 06:02:52;;;;;;;11.48;2.90;;;17.60;68.10;;;;;;2300670;58;21059;-75
2022/06/19 06:05:20;;;;;;;22.42;4.05;;;17.70;68.30;;;;;;2300013;58;21133;-76
2022/06/19 06:07:49;;;;;;;15.18;3.83;;;17.70;67.90;;;;;;2300675;58;21098;-76
2022/06/19 06:10:17;;;;;;;12.52;3.25;;;17.70;67.90;;;;;;2300708;58;21062;-76
2022/06/19 06:12:45;;;;;;;27.80;3.55;;;17.70;67.90;;;;;;2300992;58;21129;-75
2022/06/19 06:15:13;;;;;;;11.70;3.53;;;17.70;68.00;;;;;;2301398;58;21073;-76
2022/06/19 06:17:40;;;;;;;18.62;3.45;;;17.60;68.90;;;;;;2301442;58;21126;-76
2022/06/19 06:20:09;;;;;;;13.75;3.53;;;17.60;68.40;;;;;;2300497;58;21617;-75
2022/06/19 06:22:36;;;;;;;17.85;4.35;;;17.50;68.40;;;;;;2301261;58;21138;-76
2022/06/19 06:25:06;;;;;;;16.08;3.67;;;17.50;68.40;;;;;;2301018;58;21146;-76
2022/06/19 06:27:33;;;;;;;15.00;4.05;;;17.50;68.40;;;;;;2301736;58;21201;-76
2022/06/19 06:30:00;;;;;;;12.15;3.25;;;17.50;68.60;;;;;;2300622;58;21050;-76
2022/06/19 06:32:28;;;;;;;13.00;3.10;;;17.40;67.80;;;;;;2300615;58;21110;-77
2022/06/19 06:34:56;;;;;;;11.80;4.05;;;17.40;67.60;;;;;;2301144;58;21639;-76
2022/06/19 06:37:23;;;;;;;22.02;3.75;;;17.30;68.00;;;;;;2300476;58;21058;-76
2022/06/19 06:39:51;;;;;;;17.12;3.97;;;17.40;67.90;;;;;;2300305;58;21066;-76
2022/06/19 06:42:18;;;;;;;16.10;4.00;;;17.40;67.70;;;;;;2300910;58;21778;-76
2022/06/19 06:44:46;;;;;;;10.18;3.28;;;17.50;67.90;;;;;;2301767;58;21106;-80
2022/06/19 06:47:13;;;;;;;16.17;2.97;;;17.50;67.60;;;;;;2538425;54;21046;-76
2022/06/19 06:49:41;;;;;;;12.25;3.53;;;17.50;66.40;;;;;;2301421;58;21150;-76
2022/06/19 06:52:10;;;;;;;10.02;3.30;;;17.60;66.80;;;;;;2300915;58;21075;-76
2022/06/19 06:54:39;;;;;;;9.35;2.80;;;17.70;66.80;;;;;;2300866;58;21118;-76
2022/06/19 06:57:07;;;;;;;11.77;2.37;;;17.80;66.00;;;;;;2301364;58;21360;-76
2022/06/19 06:59:36;;;;;;;8.02;2.53;;;17.90;65.60;;;;;;2301688;58;21065;-76
2022/06/19 07:02:06;;;;;;;9.90;3.30;;;18.00;65.40;;;;;;2301599;58;21628;-76
2022/06/19 07:04:33;;;;;;;10.05;4.18;;;18.00;64.50;;;;;;2301674;58;21623;-76
2022/06/19 07:07:02;;;;;;;6.45;2.70;;;18.10;64.50;;;;;;2301241;58;21106;-76
2022/06/19 07:09:29;;;;;;;7.72;2.40;;;18.20;64.60;;;;;;2301644;58;21070;-76
2022/06/19 07:11:57;;;;;;;7.72;2.37;;;18.30;64.30;;;;;;2301827;58;21070;-76
2022/06/19 07:14:24;;;;;;;8.57;2.30;;;18.50;63.90;;;;;;2301315;58;21138;-76
2022/06/19 07:16:51;;;;;;;8.73;3.03;;;18.50;63.70;;;;;;2301656;58;21121;-76
2022/06/19 07:19:19;;;;;;;8.88;2.47;;;18.70;63.20;;;;;;2301409;58;21142;-75
2022/06/19 07:21:46;;;;;;;9.10;2.30;;;18.70;62.90;;;;;;2301552;58;21069;-75
2022/06/19 07:24:14;;;;;;;8.73;2.75;;;18.90;63.40;;;;;;2301615;58;21137;-75
2022/06/19 07:26:41;;;;;;;5.43;2.00;;;19.00;61.80;;;;;;2301324;58;21058;-75
2022/06/19 07:29:09;;;;;;;8.93;2.10;;;19.00;61.60;;;;;;2301458;58;21062;-75
2022/06/19 07:31:37;;;;;;;7.50;2.12;;;19.10;61.60;;;;;;2538851;54;21592;-76
2022/06/19 07:34:05;;;;;;;9.07;2.25;;;19.20;61.30;;;;;;2301697;58;21078;-76
2022/06/19 07:36:33;;;;;;;8.43;2.00;;;19.30;59.90;;;;;;2301299;58;21074;-75
2022/06/19 07:39:00;;;;;;;8.52;2.15;;;19.40;59.10;;;;;;2301836;58;21137;-76
2022/06/19 07:41:28;;;;;;;9.50;2.75;;;19.50;58.60;;;;;;2301311;58;21071;-76
2022/06/19 07:43:56;;;;;;;10.45;2.37;;;19.60;58.30;;;;;;2301822;58;21098;-76
2022/06/19 07:46:24;;;;;;;7.55;1.95;;;19.70;58.20;;;;;;2301770;58;21154;-76
2022/06/19 07:51:37;;;;;;;8.70;1.77;;;19.80;57.60;;;;;;2301346;58;21006;-76
2022/06/19 07:54:05;;;;;;;7.07;1.90;;;19.90;57.20;;;;;;2301632;58;21058;-76
2022/06/19 07:56:33;;;;;;;3.75;1.55;;;20.00;57.00;;;;;;2300959;58;21062;-76
2022/06/19 07:59:02;;;;;;;8.27;1.85;;;20.10;57.20;;;;;;2301249;58;21704;-78
2022/06/19 08:01:30;;;;;;;4.22;1.77;;;20.10;57.20;;;;;;2301036;58;21058;-76
2022/06/19 08:03:57;;;;;;;7.43;1.50;;;20.20;56.90;;;;;;2301517;58;21621;-75
2022/06/19 08:06:25;;;;;;;5.00;1.42;;;20.30;56.60;;;;;;2301233;58;21082;-75
2022/06/19 08:08:53;;;;;;;6.82;1.73;;;20.40;56.20;;;;;;2300895;58;21058;-77
2022/06/19 08:11:20;;;;;;;5.55;1.80;;;20.40;55.70;;;;;;2301133;58;21082;-77
2022/06/19 08:13:48;;;;;;;7.12;1.98;;;20.60;55.50;;;;;;2301298;58;21098;-75
2022/06/19 08:16:15;;;;;;;5.75;2.12;;;20.60;56.00;;;;;;2301420;58;21600;-76
2022/06/19 08:18:43;;;;;;;6.10;2.03;;;20.70;55.30;;;;;;2301420;58;21086;-75
2022/06/19 08:21:10;;;;;;;6.35;1.92;;;20.80;55.10;;;;;;2301437;58;21125;-76
2022/06/19 08:23:38;;;;;;;8.10;2.03;;;20.90;54.90;;;;;;2301076;58;21194;-76
2022/06/19 08:26:05;;;;;;;4.87;1.77;;;21.00;54.70;;;;;;2301195;58;21069;-76
2022/06/19 08:28:37;;;;;;;4.57;1.50;;;21.10;54.60;;;;;;2301200;58;21576;-78
2022/06/19 08:31:06;;;;;;;5.35;1.73;;;21.10;54.00;;;;;;2301386;58;21105;-77
2022/06/19 08:33:34;;;;;;;5.97;1.83;;;21.20;54.10;;;;;;2301498;58;21134;-75
2022/06/19 08:36:05;;;;;;;7.95;2.37;;;21.20;52.80;;;;;;2301501;58;21138;-76
2022/06/19 08:38:36;;;;;;;6.22;1.80;;;21.20;52.10;;;;;;2301747;58;21541;-76
2022/06/19 08:41:23;;;;;;;4.50;1.80;;;21.20;52.50;;;;;;2301454;58;21110;-76
2022/06/19 08:44:23;;;;;;;5.18;1.48;;;21.20;53.10;;;;;;2301227;58;22159;-76
2022/06/19 08:47:03;;;;;;;4.68;1.55;;;21.20;53.40;;;;;;2297446;58;21130;-75
2022/06/19 08:49:45;;;;;;;3.08;1.45;;;21.30;53.90;;;;;;2300968;58;21070;-76
2022/06/19 08:52:23;;;;;;;7.43;1.70;;;21.30;54.10;;;;;;2301205;58;21530;-76
2022/06/19 08:55:01;;;;;;;5.53;1.65;;;21.30;52.70;;;;;;2301507;58;21517;-76
2022/06/19 09:00:10;;;;;;;7.20;2.10;;;21.20;51.60;;;;;;2334151;57;22167;-78
2022/06/19 09:02:47;;;;;;;6.30;1.87;;;21.20;51.30;;;;;;2347862;57;21509;-78
2022/06/19 09:05:45;;;;;;;5.90;1.95;;;21.10;51.50;;;;;;2346948;57;21034;-77
2022/06/19 09:08:47;;;;;;;5.82;1.70;;;21.00;50.70;;;;;;2346973;57;21046;-76
2022/06/19 09:11:36;;;;;;;6.47;2.00;;;21.00;51.20;;;;;;2347387;57;21050;-76
2022/06/19 09:14:14;;;;;;;4.97;1.60;;;21.00;51.60;;;;;;2347305;57;21596;-75
2022/06/19 09:16:50;;;;;;;9.07;1.90;;;21.00;52.30;;;;;;2347356;57;21049;-75
2022/06/19 09:19:32;;;;;;;6.68;2.33;;;21.10;52.90;;;;;;2347307;57;21128;-78
2022/06/19 09:22:14;;;;;;;5.75;1.70;;;21.10;52.50;;;;;;2346950;57;21131;-76
2022/06/19 09:25:02;;;;;;;7.65;2.10;;;21.20;52.40;;;;;;2347090;57;21061;-76
2022/06/19 09:27:33;;;;;;;6.30;2.45;;;21.20;51.90;;;;;;2347015;57;21589;-75
2022/06/19 09:30:05;;;;;;;7.53;1.62;;;21.20;52.30;;;;;;2347547;57;21583;-75
2022/06/19 09:32:40;;;;;;;9.52;1.98;;;21.20;52.60;;;;;;2346865;57;21045;-76
2022/06/19 09:35:13;;;;;;;11.23;2.78;;;21.30;53.00;;;;;;2347552;57;21536;-75
2022/06/19 09:37:46;;;;;;;4.70;1.52;;;21.30;53.50;;;;;;2347113;57;21054;-75
2022/06/19 09:40:15;;;;;;;;;;;21.30;54.00;;;;;;2351534;57;21084;-78
2022/06/19 09:42:48;;;;;;;8.02;2.08;;;21.30;54.10;;;;;;2347586;57;20074;-75
2022/06/19 09:45:20;;;;;;;10.05;2.55;;;21.40;54.50;;;;;;2347365;57;21042;-74
2022/06/19 09:47:54;;;;;;;6.53;2.37;;;21.40;54.80;;;;;;2347314;57;21618;-75
2022/06/19 09:50:29;;;;;;;9.82;2.33;;;21.30;55.00;;;;;;2347745;57;21030;-75
2022/06/19 09:55:33;;;;;;;8.88;2.58;;;21.40;55.40;;;;;;2313127;54;22083;-78
2022/06/19 09:58:07;;;;;;;9.70;2.70;;;21.40;55.80;;;;;;2304182;54;21195;-77
2022/06/19 10:00:38;;;;;;;6.30;2.00;;;21.30;56.30;;;;;;2267998;59;21038;-78
2022/06/19 10:03:12;;;;;;;13.10;2.45;;;21.20;56.70;;;;;;2268176;59;21097;-77
2022/06/19 10:05:43;;;;;;;9.55;2.28;;;21.20;56.70;;;;;;2269911;55;21136;-79
2022/06/19 10:08:15;;;;;;;11.40;2.25;;;21.20;57.00;;;;;;2273609;55;21070;-80
2022/06/19 10:10:48;;;;;;;8.52;2.53;;;21.10;57.10;;;;;;2266468;59;21145;-77
2022/06/19 10:13:22;;;;;;;9.20;2.60;;;21.00;57.40;;;;;;2266915;59;21106;-78
2022/06/19 10:15:52;;;;;;;11.23;3.08;;;20.90;57.50;;;;;;2269806;55;21101;-78
2022/06/19 10:18:29;;;;;;;8.40;2.65;;;20.90;57.70;;;;;;2265453;59;21057;-77
2022/06/19 10:21:05;;;;;;;11.23;2.53;;;20.80;58.10;;;;;;2266154;59;21058;-77
2022/06/19 10:23:50;;;;;;;7.57;2.15;;;20.80;58.60;;;;;;2266275;59;21145;-78
2022/06/19 10:29:17;;;;;;;13.98;3.85;;;20.70;59.20;;;;;;2289313;58;22215;-78
2022/06/19 10:32:01;;;;;;;11.55;2.80;;;20.60;59.30;;;;;;2289823;58;21149;-75
2022/06/19 10:37:20;;;;;;;10.10;2.97;;;20.60;59.60;;;;;;2369813;53;22137;-75
2022/06/19 10:40:02;;;;;;;7.57;2.72;;;20.50;59.40;;;;;;2364928;56;21058;-75
2022/06/19 10:42:39;;;;;;;8.88;2.80;;;20.40;59.50;;;;;;2373154;56;21109;-76
2022/06/19 10:45:24;;;;;;;9.63;2.95;;;20.30;59.80;;;;;;2372860;56;21051;-77
2022/06/19 10:48:19;;;;;;;7.32;2.70;;;20.20;60.30;;;;;;2397871;52;21027;-76
2022/06/19 10:50:54;;;;;;;14.15;3.85;;;20.10;60.90;;;;;;2374336;55;21125;-76
2022/06/19 10:53:45;;;;;;;15.27;3.15;;;20.00;61.30;;;;;;2374078;56;21541;-76
2022/06/19 10:56:23;;;;;;;11.68;3.05;;;19.90;61.60;;;;;;2373438;56;21055;-76
2022/06/19 10:58:51;;;;;;;9.75;3.50;;;19.90;61.60;;;;;;2374044;56;21043;-76
2022/06/19 11:04:11;;;;;;;15.15;3.08;;;19.90;62.30;;;;;;2371077;52;20978;-77
2022/06/19 11:06:47;;;;;;;8.43;2.60;;;19.80;62.40;;;;;;2368842;56;21054;-75
2022/06/19 11:09:19;;;;;;;10.75;2.97;;;19.80;62.70;;;;;;2368652;56;21047;-76
2022/06/19 11:11:49;;;;;;;10.15;2.58;;;19.90;63.20;;;;;;2370580;52;21055;-76
2022/06/19 11:14:31;;;;;;;11.02;2.42;;;19.90;63.60;;;;;;2378568;52;21190;-77
2022/06/19 11:17:01;;;;;;;11.00;2.78;;;19.90;63.50;;;;;;2367626;56;21066;-78
2022/06/19 11:19:34;;;;;;;14.77;2.78;;;20.00;63.60;;;;;;2386672;52;21145;-77
2022/06/19 11:22:04;;;;;;;12.88;3.12;;;20.00;63.60;;;;;;2367373;56;21066;-77
2022/06/19 11:24:34;;;;;;;13.93;3.22;;;20.10;63.30;;;;;;2367579;56;21114;-76
2022/06/19 11:27:02;;;;;;;12.40;2.80;;;20.10;63.10;;;;;;2368679;56;21206;-77
2022/06/19 11:29:31;;;;;;;16.20;3.33;;;20.10;63.10;;;;;;2408549;52;21043;-78
2022/06/19 11:32:18;;;;;;;11.00;2.80;;;20.10;63.10;;;;;;2369243;56;21597;-77
2022/06/19 11:34:58;;;;;;;15.88;3.30;;;20.10;63.30;;;;;;2371156;56;21211;-76
2022/06/19 11:37:31;;;;;;;12.15;3.00;;;20.10;63.50;;;;;;2372944;56;21054;-77
2022/06/19 11:40:15;;;;;;;12.15;3.17;;;20.10;64.00;;;;;;2386691;52;21106;-77
2022/06/19 11:42:49;;;;;;;14.23;4.35;;;20.10;64.60;;;;;;2375311;56;21054;-77
2022/06/19 11:45:28;;;;;;;12.68;3.08;;;20.10;63.70;;;;;;2374881;56;21055;-77
2022/06/19 11:48:10;;;;;;;14.05;3.40;;;20.20;63.70;;;;;;2373365;56;21110;-76
2022/06/19 11:50:50;;;;;;;17.20;4.12;;;20.30;63.30;;;;;;2373457;56;21051;-76
2022/06/19 11:53:22;;;;;;;11.27;2.78;;;20.30;62.90;;;;;;2374074;56;21098;-76
2022/06/19 11:55:51;;;;;;;12.37;3.17;;;20.30;63.10;;;;;;2400797;52;21047;-77
2022/06/19 11:58:26;;;;;;;13.65;3.47;;;20.20;63.10;;;;;;2374251;56;21114;-77
2022/06/19 12:01:03;;;;;;;12.70;3.08;;;20.10;63.80;;;;;;2373741;56;21585;-76
2022/06/19 12:03:33;;;;;;;14.68;3.05;;;20.20;64.10;;;;;;2374358;56;21039;-77
2022/06/19 12:06:04;;;;;;;13.57;4.47;;;20.10;64.20;;;;;;2418802;52;21058;-76
2022/06/19 12:08:37;;;;;;;8.85;2.80;;;20.10;64.50;;;;;;2379297;52;21106;-76
2022/06/19 12:11:08;;;;;;;13.98;3.37;;;20.10;65.80;;;;;;2374052;56;21039;-77
2022/06/19 12:13:38;;;;;;;14.30;3.80;;;20.00;65.10;;;;;;2374202;56;21467;-77
2022/06/19 12:16:17;;;;;;;14.32;3.15;;;20.00;66.10;;;;;;2472737;52;21054;-76
2022/06/19 12:18:45;;;;;;;17.50;4.18;;;20.00;66.00;;;;;;2373449;56;21023;-77
2022/06/19 12:21:20;;;;;;;19.70;3.28;;;19.90;65.80;;;;;;2374009;56;21027;-76
2022/06/19 12:23:59;;;;;;;14.18;3.60;;;19.90;66.50;;;;;;2466994;52;21193;-76
2022/06/19 12:26:34;;;;;;;11.77;3.35;;;19.90;66.30;;;;;;2373878;56;21097;-75
2022/06/19 12:29:12;;;;;;;14.50;3.67;;;19.90;66.90;;;;;;2374332;56;21525;-76
2022/06/19 12:31:42;;;;;;;18.15;4.07;;;19.70;67.20;;;;;;2373994;56;21070;-76
2022/06/19 12:36:49;;;;;;;14.85;3.75;;;19.60;68.30;;;;;;2385337;54;22107;-76
2022/06/19 12:39:21;;;;;;;16.70;4.18;;;19.50;69.70;;;;;;2303633;58;21143;-75
2022/06/19 12:41:57;;;;;;;19.17;4.22;;;19.40;70.30;;;;;;2317959;58;21056;-74
2022/06/19 12:44:43;;;;;;;12.80;3.95;;;19.30;70.70;;;;;;2317926;58;21049;-75
2022/06/19 12:47:17;;;;;;;18.23;3.65;;;19.20;71.40;;;;;;2317830;56;21068;-76
2022/06/19 12:50:26;;;;;;;10.57;4.25;;;19.10;71.70;;;;;;2317836;58;21127;-76
2022/06/19 12:53:03;;;;;;;17.62;4.45;;;18.90;72.10;;;;;;2320044;56;21109;-75
2022/06/19 12:55:54;;;;;;;17.20;4.70;;;18.80;72.30;;;;;;2317510;58;21072;-75
2022/06/19 13:01:31;;;;;;;9.57;4.32;;;18.70;73.60;;;;;;2355691;57;22050;-77
2022/06/19 13:04:28;;;;;;;18.45;4.53;;;18.70;73.70;;;;;;2347384;57;21149;-76
2022/06/19 13:07:09;;;;;;;14.48;4.57;;;18.60;73.90;;;;;;2354511;53;21049;-77
2022/06/19 13:09:49;;;;;;;15.15;4.65;;;18.60;74.30;;;;;;2364031;56;21111;-78
2022/06/19 13:12:27;;;;;;;11.73;3.58;;;18.50;74.50;;;;;;2375081;56;21277;-78
2022/06/19 13:15:06;;;;;;;19.12;4.28;;;18.50;74.60;;;;;;2374410;56;21070;-77
2022/06/19 13:17:41;;;;;;;7.90;3.47;;;18.50;74.90;;;;;;2375169;56;21215;-78
2022/06/19 13:20:24;;;;;;;18.67;4.97;;;18.50;75.30;;;;;;2375252;56;21135;-77
2022/06/19 13:23:01;;;;;;;11.50;4.22;;;18.50;75.30;;;;;;2374501;56;21057;-75
2022/06/19 13:25:35;;;;;;;12.13;3.62;;;18.50;75.60;;;;;;2385348;52;21110;-75
2022/06/19 13:28:24;;;;;;;14.38;4.07;;;18.50;75.70;;;;;;2385289;52;21133;-75
2022/06/19 13:30:58;;;;;;;17.55;4.60;;;18.40;75.50;;;;;;2374609;56;21087;-75